Lake Park, FL

5:16 AM EST on December 29, 2014 (GMT -0500)
Palm Beach International | Change Station
CLOSE
Current Station
Airport
Location: West Palm Beach,
Elevation: 20 ft
Nearby Weather Stations

Elev 20 ft 26.68 °N, 80.10 °W | Updated 6 minutes ago

Clear
Clear
69 °F
Feels Like 69 °F
N
4
Wind Variable Wind from North

Today
High -- | Low -- °F
--% Chance of Precip.
Yesterday
High -- | Low -- °F
Precip. -- in
7:08 AM 5:36 PM
First Quarter, 57% visible
Pressure 30.08 in
Visibility 10.0 miles
Clouds Few 1500 ft
Scattered Clouds 2400 ft
Mostly Cloudy 5500 ft
Dew Point 67 °F
Humidity 93%
Rainfall 0.00 in
Snow Depth Not available.
UV 0 out of 12
Pollen 4.90 out of 12
Air Quality Not available.
Flu Activity Not available.
SPECI KPBI 291010Z 35003KT 10SM FEW015 SCT024 BKN055 21/19 A3008 RMK AO2 RAE00 P0000 T02060194

More Conditions Fewer Conditions

Pressure 30.08 in
Visibility 10.0 miles
Clouds Few 1500 ft
Scattered Clouds 2400 ft
Mostly Cloudy 5500 ft
Dew Point 67 °F
Humidity 93%
Rainfall 0.00 in
Snow Depth Not available.
UV 0 out of 12
Pollen 4.90 out of 12
Air Quality Not available.
Flu Activity Not available.
SPECI KPBI 291010Z 35003KT 10SM FEW015 SCT024 BKN055 21/19 A3008 RMK AO2 RAE00 P0000 T02060194

More Conditions Fewer Conditions

Nowcast | as of 3:11 am EST on December 29, 2014

Through early this morning...isolated showers will continue to develop over the Atlantic waters and move northwest around 10 mph into the East Coast Metro areas before dissipating. Rainfall amounts up to tenth of an inch can be expected from the showers and mariners can expect higher seas in and near the showers.

×

10-Day Weather Forecast

Almanac

Astronomy

Dec. 29, 2014 Rise Set
Actual Time
Civil Twilight
Nautical Twilight
Astronomical Twilight
Moon
Length of Visible Light
Length of Day
Tomorrow will be .
, % of the Moon is Illuminated

Today's Extremes

State Highs State Lows

Community

WunderPhotos

Upload Photos

1,781,563 photos uploaded!

WunderBlogs® & News

Nearby

Air Quality

  Air Quality AQ Index Pollutant
Not available.

Snow Depth

Station Depth Elevation

Earthquake Activity

City Distance Mag. Time & Date
Minimum magnitude displayed is 2.5.

Coastal Water Temperatures

Place Temperature

Nearby Weather Stations